sensor_id;sensor_type;location;lat;lon;timestamp;temperature;humidity
32614;DHT22;19031;51.400;6.770;2023-12-20T00:00:54;8.00;99.90
32614;DHT22;19031;51.400;6.770;2023-12-20T00:03:20;7.90;99.90
32614;DHT22;19031;51.400;6.770;2023-12-20T00:05:46;8.00;99.90
32614;DHT22;19031;51.400;6.770;2023-12-20T00:08:12;8.00;99.90
32614;DHT22;19031;51.400;6.770;2023-12-20T00:10:38;8.00;99.90
32614;DHT22;19031;51.400;6.770;2023-12-20T00:13:03;7.90;99.90
32614;DHT22;19031;51.400;6.770;2023-12-20T00:15:29;7.80;99.90
32614;DHT22;19031;51.400;6.770;2023-12-20T00:17:54;7.80;99.90
32614;DHT22;19031;51.400;6.770;2023-12-20T00:20:20;7.70;99.90
32614;DHT22;19031;51.400;6.770;2023-12-20T00:22:45;7.60;99.90
32614;DHT22;19031;51.400;6.770;2023-12-20T00:25:11;7.50;99.90
32614;DHT22;19031;51.400;6.770;2023-12-20T00:27:37;7.60;99.90
32614;DHT22;19031;51.400;6.770;2023-12-20T00:30:02;7.40;99.90
32614;DHT22;19031;51.400;6.770;2023-12-20T00:32:28;7.50;99.90
32614;DHT22;19031;51.400;6.770;2023-12-20T00:34:54;7.30;99.90
32614;DHT22;19031;51.400;6.770;2023-12-20T00:37:19;7.40;99.90
32614;DHT22;19031;51.400;6.770;2023-12-20T00:39:45;7.30;99.90
32614;DHT22;19031;51.400;6.770;2023-12-20T00:42:11;7.30;99.90
32614;DHT22;19031;51.400;6.770;2023-12-20T00:44:36;7.30;99.90
32614;DHT22;19031;51.400;6.770;2023-12-20T00:47:02;7.20;99.90
32614;DHT22;19031;51.400;6.770;2023-12-20T00:49:27;7.30;99.90
32614;DHT22;19031;51.400;6.770;2023-12-20T00:51:53;7.30;99.90
32614;DHT22;19031;51.400;6.770;2023-12-20T00:54:18;7.20;99.90
32614;DHT22;19031;51.400;6.770;2023-12-20T00:56:44;7.30;99.90
32614;DHT22;19031;51.400;6.770;2023-12-20T00:59:09;7.30;99.90
32614;DHT22;19031;51.400;6.770;2023-12-20T01:01:36;7.30;99.90
32614;DHT22;19031;51.400;6.770;2023-12-20T01:04:01;7.40;99.90
32614;DHT22;19031;51.400;6.770;2023-12-20T01:06:27;7.40;99.90
32614;DHT22;19031;51.400;6.770;2023-12-20T01:08:52;7.40;99.90
32614;DHT22;19031;51.400;6.770;2023-12-20T01:11:18;7.40;99.90
32614;DHT22;19031;51.400;6.770;2023-12-20T01:13:43;7.30;99.90
32614;DHT22;19031;51.400;6.770;2023-12-20T01:16:11;7.40;99.90
32614;DHT22;19031;51.400;6.770;2023-12-20T01:18:36;7.40;99.90
32614;DHT22;19031;51.400;6.770;2023-12-20T01:21:03;7.40;99.90
32614;DHT22;19031;51.400;6.770;2023-12-20T01:23:29;7.30;99.90
32614;DHT22;19031;51.400;6.770;2023-12-20T01:25:55;7.40;99.90
32614;DHT22;19031;51.400;6.770;2023-12-20T01:28:20;7.40;99.90
32614;DHT22;19031;51.400;6.770;2023-12-20T01:30:46;7.30;99.90
32614;DHT22;19031;51.400;6.770;2023-12-20T01:33:11;7.20;99.90
32614;DHT22;19031;51.400;6.770;2023-12-20T01:35:37;7.20;99.90
32614;DHT22;19031;51.400;6.770;2023-12-20T01:38:03;7.30;99.90
32614;DHT22;19031;51.400;6.770;2023-12-20T01:40:28;7.30;99.90
32614;DHT22;19031;51.400;6.770;2023-12-20T01:43:02;7.20;99.90
32614;DHT22;19031;51.400;6.770;2023-12-20T01:45:30;7.20;99.90
32614;DHT22;19031;51.400;6.770;2023-12-20T01:47:57;7.20;99.90
32614;DHT22;19031;51.400;6.770;2023-12-20T01:50:24;7.00;99.90
32614;DHT22;19031;51.400;6.770;2023-12-20T01:52:50;7.00;99.90
32614;DHT22;19031;51.400;6.770;2023-12-20T01:55:18;6.90;99.90
32614;DHT22;19031;51.400;6.770;2023-12-20T01:57:45;6.90;99.90
32614;DHT22;19031;51.400;6.770;2023-12-20T02:00:11;6.90;99.90
32614;DHT22;19031;51.400;6.770;2023-12-20T02:02:39;6.80;99.90
32614;DHT22;19031;51.400;6.770;2023-12-20T02:05:06;6.70;99.90
32614;DHT22;19031;51.400;6.770;2023-12-20T02:07:32;6.70;99.90
32614;DHT22;19031;51.400;6.770;2023-12-20T02:09:58;6.70;99.90
32614;DHT22;19031;51.400;6.770;2023-12-20T02:12:24;6.70;99.90
32614;DHT22;19031;51.400;6.770;2023-12-20T02:14:49;6.70;99.90
32614;DHT22;19031;51.400;6.770;2023-12-20T02:17:15;6.70;99.90
32614;DHT22;19031;51.400;6.770;2023-12-20T02:19:41;6.60;99.90
32614;DHT22;19031;51.400;6.770;2023-12-20T02:22:09;6.60;99.90
32614;DHT22;19031;51.400;6.770;2023-12-20T02:24:35;6.50;99.90
32614;DHT22;19031;51.400;6.770;2023-12-20T02:27:01;6.50;99.90
32614;DHT22;19031;51.400;6.770;2023-12-20T02:29:27;6.50;99.90
32614;DHT22;19031;51.400;6.770;2023-12-20T02:31:52;6.50;99.90
32614;DHT22;19031;51.400;6.770;2023-12-20T02:34:18;6.40;99.90
32614;DHT22;19031;51.400;6.770;2023-12-20T02:36:43;6.40;99.90
32614;DHT22;19031;51.400;6.770;2023-12-20T02:39:09;6.40;99.90
32614;DHT22;19031;51.400;6.770;2023-12-20T02:41:34;6.40;99.90
32614;DHT22;19031;51.400;6.770;2023-12-20T02:44:01;6.40;99.90
32614;DHT22;19031;51.400;6.770;2023-12-20T02:46:27;6.30;99.90
32614;DHT22;19031;51.400;6.770;2023-12-20T02:48:52;6.30;99.90
32614;DHT22;19031;51.400;6.770;2023-12-20T02:51:18;6.30;99.90
32614;DHT22;19031;51.400;6.770;2023-12-20T02:53:43;6.30;99.90
32614;DHT22;19031;51.400;6.770;2023-12-20T02:56:09;6.20;99.90
32614;DHT22;19031;51.400;6.770;2023-12-20T02:58:35;6.20;99.90
32614;DHT22;19031;51.400;6.770;2023-12-20T03:01:00;6.20;99.90
32614;DHT22;19031;51.400;6.770;2023-12-20T03:03:26;6.10;99.90
32614;DHT22;19031;51.400;6.770;2023-12-20T03:05:52;6.10;99.90
32614;DHT22;19031;51.400;6.770;2023-12-20T03:08:17;6.10;99.90
32614;DHT22;19031;51.400;6.770;2023-12-20T03:10:43;6.10;99.90
32614;DHT22;19031;51.400;6.770;2023-12-20T03:13:08;6.10;99.90
32614;DHT22;19031;51.400;6.770;2023-12-20T03:15:34;6.10;99.90
32614;DHT22;19031;51.400;6.770;2023-12-20T03:17:59;6.10;99.90
32614;DHT22;19031;51.400;6.770;2023-12-20T03:20:25;6.10;99.90
32614;DHT22;19031;51.400;6.770;2023-12-20T03:22:53;6.10;99.90
32614;DHT22;19031;51.400;6.770;2023-12-20T03:25:19;6.20;99.90
32614;DHT22;19031;51.400;6.770;2023-12-20T03:27:45;6.20;99.90
32614;DHT22;19031;51.400;6.770;2023-12-20T03:30:10;6.30;99.90
32614;DHT22;19031;51.400;6.770;2023-12-20T03:32:37;6.20;99.90
32614;DHT22;19031;51.400;6.770;2023-12-20T03:35:03;6.20;99.90
32614;DHT22;19031;51.400;6.770;2023-12-20T03:37:29;6.30;99.90
32614;DHT22;19031;51.400;6.770;2023-12-20T03:39:55;6.30;99.90
32614;DHT22;19031;51.400;6.770;2023-12-20T03:42:20;6.20;99.90
32614;DHT22;19031;51.400;6.770;2023-12-20T03:44:46;6.20;99.90
32614;DHT22;19031;51.400;6.770;2023-12-20T03:47:11;6.30;99.90
32614;DHT22;19031;51.400;6.770;2023-12-20T03:49:37;6.30;99.90
32614;DHT22;19031;51.400;6.770;2023-12-20T03:52:05;6.20;99.90
32614;DHT22;19031;51.400;6.770;2023-12-20T03:54:30;6.20;99.90
32614;DHT22;19031;51.400;6.770;2023-12-20T03:56:56;6.30;99.90
32614;DHT22;19031;51.400;6.770;2023-12-20T03:59:22;6.20;99.90
32614;DHT22;19031;51.400;6.770;2023-12-20T04:01:47;6.30;99.90
32614;DHT22;19031;51.400;6.770;2023-12-20T04:04:13;6.20;99.90
32614;DHT22;19031;51.400;6.770;2023-12-20T04:06:39;6.20;99.90
32614;DHT22;19031;51.400;6.770;2023-12-20T04:09:05;6.10;99.90
32614;DHT22;19031;51.400;6.770;2023-12-20T04:11:30;6.10;99.90
32614;DHT22;19031;51.400;6.770;2023-12-20T04:13:56;6.00;99.90
32614;DHT22;19031;51.400;6.770;2023-12-20T04:16:22;5.90;99.90
32614;DHT22;19031;51.400;6.770;2023-12-20T04:18:47;6.00;99.90
32614;DHT22;19031;51.400;6.770;2023-12-20T04:21:13;5.90;99.90
32614;DHT22;19031;51.400;6.770;2023-12-20T04:23:38;6.00;99.90
32614;DHT22;19031;51.400;6.770;2023-12-20T04:26:04;6.00;99.90
32614;DHT22;19031;51.400;6.770;2023-12-20T04:28:29;5.90;99.90
32614;DHT22;19031;51.400;6.770;2023-12-20T04:30:56;5.90;99.90
32614;DHT22;19031;51.400;6.770;2023-12-20T04:33:22;5.90;99.90
32614;DHT22;19031;51.400;6.770;2023-12-20T04:35:48;5.90;99.90
32614;DHT22;19031;51.400;6.770;2023-12-20T04:38:13;5.90;99.90
32614;DHT22;19031;51.400;6.770;2023-12-20T04:40:39;5.90;99.90
32614;DHT22;19031;51.400;6.770;2023-12-20T04:43:06;6.00;99.90
32614;DHT22;19031;51.400;6.770;2023-12-20T04:45:32;6.00;99.90
32614;DHT22;19031;51.400;6.770;2023-12-20T04:47:57;5.90;99.90
32614;DHT22;19031;51.400;6.770;2023-12-20T04:50:23;6.00;99.90
32614;DHT22;19031;51.400;6.770;2023-12-20T04:52:49;5.90;99.90
32614;DHT22;19031;51.400;6.770;2023-12-20T04:55:14;5.90;99.90
32614;DHT22;19031;51.400;6.770;2023-12-20T04:57:40;6.00;99.90
32614;DHT22;19031;51.400;6.770;2023-12-20T05:00:06;6.00;99.90
32614;DHT22;19031;51.400;6.770;2023-12-20T05:02:34;5.90;99.90
32614;DHT22;19031;51.400;6.770;2023-12-20T05:05:00;5.90;99.90
32614;DHT22;19031;51.400;6.770;2023-12-20T05:07:25;5.90;99.90
32614;DHT22;19031;51.400;6.770;2023-12-20T05:09:51;5.80;99.90
32614;DHT22;19031;51.400;6.770;2023-12-20T05:12:16;5.90;99.90
32614;DHT22;19031;51.400;6.770;2023-12-20T05:14:42;5.80;99.90
32614;DHT22;19031;51.400;6.770;2023-12-20T05:17:08;5.80;99.90
32614;DHT22;19031;51.400;6.770;2023-12-20T05:19:33;5.80;99.90
32614;DHT22;19031;51.400;6.770;2023-12-20T05:22:01;5.80;99.90
32614;DHT22;19031;51.400;6.770;2023-12-20T05:24:27;5.80;99.90
32614;DHT22;19031;51.400;6.770;2023-12-20T05:26:53;5.80;99.90
32614;DHT22;19031;51.400;6.770;2023-12-20T05:29:18;5.90;99.90
32614;DHT22;19031;51.400;6.770;2023-12-20T05:31:44;5.90;99.90
32614;DHT22;19031;51.400;6.770;2023-12-20T05:34:09;5.90;99.90
32614;DHT22;19031;51.400;6.770;2023-12-20T05:36:35;6.00;99.90
32614;DHT22;19031;51.400;6.770;2023-12-20T05:39:01;6.00;99.90
32614;DHT22;19031;51.400;6.770;2023-12-20T05:41:27;6.00;99.90
32614;DHT22;19031;51.400;6.770;2023-12-20T05:43:52;6.10;99.90
32614;DHT22;19031;51.400;6.770;2023-12-20T05:46:18;6.10;99.90
32614;DHT22;19031;51.400;6.770;2023-12-20T05:48:44;6.20;99.90
32614;DHT22;19031;51.400;6.770;2023-12-20T05:51:11;6.20;99.90
32614;DHT22;19031;51.400;6.770;2023-12-20T05:53:37;6.10;99.90
32614;DHT22;19031;51.400;6.770;2023-12-20T05:56:04;6.10;99.90
32614;DHT22;19031;51.400;6.770;2023-12-20T05:58:29;6.10;99.90
32614;DHT22;19031;51.400;6.770;2023-12-20T06:00:55;6.10;99.90
32614;DHT22;19031;51.400;6.770;2023-12-20T06:03:20;6.10;99.90
32614;DHT22;19031;51.400;6.770;2023-12-20T06:05:46;6.20;99.90
32614;DHT22;19031;51.400;6.770;2023-12-20T06:08:11;6.20;99.90
32614;DHT22;19031;51.400;6.770;2023-12-20T06:10:37;6.20;99.90
32614;DHT22;19031;51.400;6.770;2023-12-20T06:13:03;6.20;99.90
32614;DHT22;19031;51.400;6.770;2023-12-20T06:15:30;6.30;99.90
32614;DHT22;19031;51.400;6.770;2023-12-20T06:17:55;6.20;99.90
32614;DHT22;19031;51.400;6.770;2023-12-20T06:20:21;6.30;99.90
32614;DHT22;19031;51.400;6.770;2023-12-20T06:22:46;6.30;99.90
32614;DHT22;19031;51.400;6.770;2023-12-20T06:25:12;6.30;99.90
32614;DHT22;19031;51.400;6.770;2023-12-20T06:27:38;6.30;99.90
32614;DHT22;19031;51.400;6.770;2023-12-20T06:30:04;6.40;99.90
32614;DHT22;19031;51.400;6.770;2023-12-20T06:32:29;6.40;99.90
32614;DHT22;19031;51.400;6.770;2023-12-20T06:34:55;6.40;99.90
32614;DHT22;19031;51.400;6.770;2023-12-20T06:37:21;6.50;99.90
32614;DHT22;19031;51.400;6.770;2023-12-20T06:39:46;6.40;99.90
32614;DHT22;19031;51.400;6.770;2023-12-20T06:42:12;6.40;99.90
32614;DHT22;19031;51.400;6.770;2023-12-20T06:44:38;6.40;99.90
32614;DHT22;19031;51.400;6.770;2023-12-20T06:47:04;6.40;99.90
32614;DHT22;19031;51.400;6.770;2023-12-20T06:49:30;6.40;99.90
32614;DHT22;19031;51.400;6.770;2023-12-20T06:51:55;6.40;99.90
32614;DHT22;19031;51.400;6.770;2023-12-20T06:54:21;6.50;99.90
32614;DHT22;19031;51.400;6.770;2023-12-20T06:56:46;6.40;99.90
32614;DHT22;19031;51.400;6.770;2023-12-20T06:59:12;6.50;99.90
32614;DHT22;19031;51.400;6.770;2023-12-20T07:01:38;6.50;99.90
32614;DHT22;19031;51.400;6.770;2023-12-20T07:04:03;6.50;99.90
32614;DHT22;19031;51.400;6.770;2023-12-20T07:06:29;6.50;99.90
32614;DHT22;19031;51.400;6.770;2023-12-20T07:08:54;6.60;99.90
32614;DHT22;19031;51.400;6.770;2023-12-20T07:11:20;6.60;99.90
32614;DHT22;19031;51.400;6.770;2023-12-20T07:13:46;6.60;99.90
32614;DHT22;19031;51.400;6.770;2023-12-20T07:16:11;6.60;99.90
32614;DHT22;19031;51.400;6.770;2023-12-20T07:18:38;6.60;99.90
32614;DHT22;19031;51.400;6.770;2023-12-20T07:21:04;6.60;99.90
32614;DHT22;19031;51.400;6.770;2023-12-20T07:23:29;6.60;99.90
32614;DHT22;19031;51.400;6.770;2023-12-20T07:25:55;6.60;99.90
32614;DHT22;19031;51.400;6.770;2023-12-20T07:28:20;6.60;99.90
32614;DHT22;19031;51.400;6.770;2023-12-20T07:30:46;6.60;99.90
32614;DHT22;19031;51.400;6.770;2023-12-20T07:33:11;6.60;99.90
32614;DHT22;19031;51.400;6.770;2023-12-20T07:35:37;6.60;99.90
32614;DHT22;19031;51.400;6.770;2023-12-20T07:38:03;6.70;99.90
32614;DHT22;19031;51.400;6.770;2023-12-20T07:40:29;6.70;99.90
32614;DHT22;19031;51.400;6.770;2023-12-20T07:42:54;6.60;99.90
32614;DHT22;19031;51.400;6.770;2023-12-20T07:45:20;6.70;99.90
32614;DHT22;19031;51.400;6.770;2023-12-20T07:47:46;6.80;99.90
32614;DHT22;19031;51.400;6.770;2023-12-20T07:50:11;6.80;99.90
32614;DHT22;19031;51.400;6.770;2023-12-20T07:52:37;6.80;99.90
32614;DHT22;19031;51.400;6.770;2023-12-20T07:55:02;6.70;99.90
32614;DHT22;19031;51.400;6.770;2023-12-20T07:57:29;6.90;99.90
32614;DHT22;19031;51.400;6.770;2023-12-20T07:59:56;6.90;99.90
32614;DHT22;19031;51.400;6.770;2023-12-20T08:02:21;6.80;99.90
32614;DHT22;19031;51.400;6.770;2023-12-20T08:04:47;6.90;99.90
32614;DHT22;19031;51.400;6.770;2023-12-20T08:07:12;6.80;99.90
32614;DHT22;19031;51.400;6.770;2023-12-20T08:09:38;6.80;99.90
32614;DHT22;19031;51.400;6.770;2023-12-20T08:12:03;6.90;99.90
32614;DHT22;19031;51.400;6.770;2023-12-20T08:14:29;6.80;99.90
32614;DHT22;19031;51.400;6.770;2023-12-20T08:16:55;6.90;99.90
32614;DHT22;19031;51.400;6.770;2023-12-20T08:19:20;7.00;99.90
32614;DHT22;19031;51.400;6.770;2023-12-20T08:21:46;6.90;99.90
32614;DHT22;19031;51.400;6.770;2023-12-20T08:24:11;6.90;99.90
32614;DHT22;19031;51.400;6.770;2023-12-20T08:26:37;7.00;99.90
32614;DHT22;19031;51.400;6.770;2023-12-20T08:29:03;7.00;99.90
32614;DHT22;19031;51.400;6.770;2023-12-20T08:31:28;6.90;99.90
32614;DHT22;19031;51.400;6.770;2023-12-20T08:33:54;7.00;99.90
32614;DHT22;19031;51.400;6.770;2023-12-20T08:36:20;6.90;99.90
32614;DHT22;19031;51.400;6.770;2023-12-20T08:38:47;6.90;99.90
32614;DHT22;19031;51.400;6.770;2023-12-20T08:41:13;6.80;99.90
32614;DHT22;19031;51.400;6.770;2023-12-20T08:43:39;6.90;99.90
32614;DHT22;19031;51.400;6.770;2023-12-20T08:46:07;6.80;99.90
32614;DHT22;19031;51.400;6.770;2023-12-20T08:48:35;6.80;99.90
32614;DHT22;19031;51.400;6.770;2023-12-20T08:51:00;6.90;99.90
32614;DHT22;19031;51.400;6.770;2023-12-20T08:53:26;6.90;99.90
32614;DHT22;19031;51.400;6.770;2023-12-20T08:55:52;6.80;99.90
32614;DHT22;19031;51.400;6.770;2023-12-20T08:58:18;6.90;99.90
32614;DHT22;19031;51.400;6.770;2023-12-20T09:00:43;6.90;99.90
32614;DHT22;19031;51.400;6.770;2023-12-20T09:03:09;6.90;99.90
32614;DHT22;19031;51.400;6.770;2023-12-20T09:05:34;7.00;99.90
32614;DHT22;19031;51.400;6.770;2023-12-20T09:08:00;7.00;99.90
32614;DHT22;19031;51.400;6.770;2023-12-20T09:10:26;7.00;99.90
32614;DHT22;19031;51.400;6.770;2023-12-20T09:12:52;7.00;99.90
32614;DHT22;19031;51.400;6.770;2023-12-20T09:15:23;7.10;99.90
32614;DHT22;19031;51.400;6.770;2023-12-20T09:17:49;7.10;99.90
32614;DHT22;19031;51.400;6.770;2023-12-20T09:20:15;7.10;99.90
32614;DHT22;19031;51.400;6.770;2023-12-20T09:22:40;7.00;99.90
32614;DHT22;19031;51.400;6.770;2023-12-20T09:25:07;7.10;99.90
32614;DHT22;19031;51.400;6.770;2023-12-20T09:27:33;7.10;99.90
32614;DHT22;19031;51.400;6.770;2023-12-20T09:29:59;7.20;99.90
32614;DHT22;19031;51.400;6.770;2023-12-20T09:32:24;7.10;99.90
32614;DHT22;19031;51.400;6.770;2023-12-20T09:34:50;7.20;99.90
32614;DHT22;19031;51.400;6.770;2023-12-20T09:37:15;7.20;99.90
32614;DHT22;19031;51.400;6.770;2023-12-20T09:39:41;7.10;99.90
32614;DHT22;19031;51.400;6.770;2023-12-20T09:42:07;7.20;99.90
32614;DHT22;19031;51.400;6.770;2023-12-20T09:44:33;7.20;99.90
32614;DHT22;19031;51.400;6.770;2023-12-20T09:47:05;7.10;99.90
32614;DHT22;19031;51.400;6.770;2023-12-20T09:49:32;7.10;99.90
32614;DHT22;19031;51.400;6.770;2023-12-20T09:52:00;7.10;99.90
32614;DHT22;19031;51.400;6.770;2023-12-20T09:54:27;7.10;99.90
32614;DHT22;19031;51.400;6.770;2023-12-20T09:56:53;7.20;99.90
32614;DHT22;19031;51.400;6.770;2023-12-20T09:59:19;7.20;99.90
32614;DHT22;19031;51.400;6.770;2023-12-20T10:01:45;7.20;99.90
32614;DHT22;19031;51.400;6.770;2023-12-20T10:04:12;7.20;99.90
32614;DHT22;19031;51.400;6.770;2023-12-20T10:06:42;7.20;99.90
32614;DHT22;19031;51.400;6.770;2023-12-20T10:09:09;7.20;99.90
32614;DHT22;19031;51.400;6.770;2023-12-20T10:11:36;7.30;99.90
32614;DHT22;19031;51.400;6.770;2023-12-20T10:14:03;7.30;99.90
32614;DHT22;19031;51.400;6.770;2023-12-20T10:16:29;7.30;99.90
32614;DHT22;19031;51.400;6.770;2023-12-20T10:18:56;7.40;99.90
32614;DHT22;19031;51.400;6.770;2023-12-20T10:21:25;7.40;99.90
32614;DHT22;19031;51.400;6.770;2023-12-20T10:23:57;7.30;99.90
32614;DHT22;19031;51.400;6.770;2023-12-20T10:26:27;7.30;99.90
32614;DHT22;19031;51.400;6.770;2023-12-20T10:28:59;7.40;99.90
32614;DHT22;19031;51.400;6.770;2023-12-20T10:31:33;7.40;99.90
32614;DHT22;19031;51.400;6.770;2023-12-20T10:34:00;7.50;99.90
32614;DHT22;19031;51.400;6.770;2023-12-20T10:36:32;7.60;99.90
32614;DHT22;19031;51.400;6.770;2023-12-20T10:38:58;7.50;99.90
32614;DHT22;19031;51.400;6.770;2023-12-20T10:41:29;7.40;99.90
32614;DHT22;19031;51.400;6.770;2023-12-20T10:44:04;7.50;99.90
32614;DHT22;19031;51.400;6.770;2023-12-20T10:46:34;7.60;99.90
32614;DHT22;19031;51.400;6.770;2023-12-20T10:49:02;7.50;99.90
32614;DHT22;19031;51.400;6.770;2023-12-20T10:51:28;7.50;99.90
32614;DHT22;19031;51.400;6.770;2023-12-20T10:53:56;7.50;99.90
32614;DHT22;19031;51.400;6.770;2023-12-20T10:56:22;7.50;99.90
32614;DHT22;19031;51.400;6.770;2023-12-20T10:58:51;7.50;99.90
32614;DHT22;19031;51.400;6.770;2023-12-20T11:01:18;7.50;99.90
32614;DHT22;19031;51.400;6.770;2023-12-20T11:03:53;7.60;99.90
32614;DHT22;19031;51.400;6.770;2023-12-20T11:11:45;7.50;99.90
32614;DHT22;19031;51.400;6.770;2023-12-20T11:14:16;7.60;99.90
32614;DHT22;19031;51.400;6.770;2023-12-20T11:16:42;7.50;99.90
32614;DHT22;19031;51.400;6.770;2023-12-20T11:19:08;7.50;99.90
32614;DHT22;19031;51.400;6.770;2023-12-20T11:21:33;7.60;99.90
32614;DHT22;19031;51.400;6.770;2023-12-20T11:23:59;7.60;99.90
32614;DHT22;19031;51.400;6.770;2023-12-20T11:26:29;7.60;99.90
32614;DHT22;19031;51.400;6.770;2023-12-20T11:31:55;7.80;99.90
32614;DHT22;19031;51.400;6.770;2023-12-20T11:34:20;7.80;99.90
32614;DHT22;19031;51.400;6.770;2023-12-20T11:36:46;7.80;99.90
32614;DHT22;19031;51.400;6.770;2023-12-20T11:39:11;7.90;99.90
32614;DHT22;19031;51.400;6.770;2023-12-20T11:41:44;7.90;99.90
32614;DHT22;19031;51.400;6.770;2023-12-20T11:44:10;7.80;99.90
32614;DHT22;19031;51.400;6.770;2023-12-20T11:46:37;7.90;99.90
32614;DHT22;19031;51.400;6.770;2023-12-20T11:49:02;8.00;99.90
32614;DHT22;19031;51.400;6.770;2023-12-20T11:51:28;8.00;99.90
32614;DHT22;19031;51.400;6.770;2023-12-20T11:53:54;8.00;99.90
32614;DHT22;19031;51.400;6.770;2023-12-20T11:56:19;7.90;99.90
32614;DHT22;19031;51.400;6.770;2023-12-20T11:58:45;7.90;99.90
32614;DHT22;19031;51.400;6.770;2023-12-20T12:01:11;7.80;99.90
32614;DHT22;19031;51.400;6.770;2023-12-20T12:03:36;7.80;99.90
32614;DHT22;19031;51.400;6.770;2023-12-20T12:06:02;7.80;99.90
32614;DHT22;19031;51.400;6.770;2023-12-20T12:08:29;7.70;99.90
32614;DHT22;19031;51.400;6.770;2023-12-20T12:10:55;7.70;99.90
32614;DHT22;19031;51.400;6.770;2023-12-20T12:13:21;7.70;99.90
32614;DHT22;19031;51.400;6.770;2023-12-20T12:15:48;7.70;99.90
32614;DHT22;19031;51.400;6.770;2023-12-20T12:18:16;7.70;99.90
32614;DHT22;19031;51.400;6.770;2023-12-20T12:20:42;7.70;99.90
32614;DHT22;19031;51.400;6.770;2023-12-20T12:23:07;7.70;99.90
32614;DHT22;19031;51.400;6.770;2023-12-20T12:25:36;7.70;99.90
32614;DHT22;19031;51.400;6.770;2023-12-20T12:28:05;7.70;99.90
32614;DHT22;19031;51.400;6.770;2023-12-20T12:30:30;7.70;99.90
32614;DHT22;19031;51.400;6.770;2023-12-20T12:32:56;7.70;99.90
32614;DHT22;19031;51.400;6.770;2023-12-20T12:35:23;7.80;99.90
32614;DHT22;19031;51.400;6.770;2023-12-20T12:37:48;7.80;99.90
32614;DHT22;19031;51.400;6.770;2023-12-20T12:40:15;7.80;99.90
32614;DHT22;19031;51.400;6.770;2023-12-20T12:42:43;7.90;99.90
32614;DHT22;19031;51.400;6.770;2023-12-20T12:45:09;7.80;99.90
32614;DHT22;19031;51.400;6.770;2023-12-20T12:47:35;7.80;99.90
32614;DHT22;19031;51.400;6.770;2023-12-20T12:50:01;7.80;99.90
32614;DHT22;19031;51.400;6.770;2023-12-20T12:52:27;7.80;99.90
32614;DHT22;19031;51.400;6.770;2023-12-20T12:54:53;7.80;99.90
32614;DHT22;19031;51.400;6.770;2023-12-20T12:57:18;7.70;99.90
32614;DHT22;19031;51.400;6.770;2023-12-20T12:59:44;7.70;99.90
32614;DHT22;19031;51.400;6.770;2023-12-20T13:02:12;7.70;99.90
32614;DHT22;19031;51.400;6.770;2023-12-20T13:04:39;7.70;99.90
32614;DHT22;19031;51.400;6.770;2023-12-20T13:07:04;7.60;99.90
32614;DHT22;19031;51.400;6.770;2023-12-20T13:09:30;7.60;99.90
32614;DHT22;19031;51.400;6.770;2023-12-20T13:11:56;7.70;99.90
32614;DHT22;19031;51.400;6.770;2023-12-20T13:14:22;7.50;99.90
32614;DHT22;19031;51.400;6.770;2023-12-20T13:16:48;7.50;99.90
32614;DHT22;19031;51.400;6.770;2023-12-20T13:19:13;7.50;99.90
32614;DHT22;19031;51.400;6.770;2023-12-20T13:21:40;7.50;99.90
32614;DHT22;19031;51.400;6.770;2023-12-20T13:24:06;7.40;99.90
32614;DHT22;19031;51.400;6.770;2023-12-20T13:26:32;7.40;99.90
32614;DHT22;19031;51.400;6.770;2023-12-20T13:28:58;7.40;99.90
32614;DHT22;19031;51.400;6.770;2023-12-20T13:31:24;7.40;99.90
32614;DHT22;19031;51.400;6.770;2023-12-20T13:33:49;7.40;99.90
32614;DHT22;19031;51.400;6.770;2023-12-20T13:36:16;7.40;99.90
32614;DHT22;19031;51.400;6.770;2023-12-20T13:38:43;7.30;99.90
32614;DHT22;19031;51.400;6.770;2023-12-20T13:41:08;7.40;99.90
32614;DHT22;19031;51.400;6.770;2023-12-20T13:43:34;7.30;99.90
32614;DHT22;19031;51.400;6.770;2023-12-20T13:46:00;7.30;99.90
32614;DHT22;19031;51.400;6.770;2023-12-20T13:48:26;7.20;99.90
32614;DHT22;19031;51.400;6.770;2023-12-20T13:50:51;7.30;99.90
32614;DHT22;19031;51.400;6.770;2023-12-20T13:53:17;7.30;99.90
32614;DHT22;19031;51.400;6.770;2023-12-20T13:55:42;7.20;99.90
32614;DHT22;19031;51.400;6.770;2023-12-20T13:58:08;7.20;99.90
32614;DHT22;19031;51.400;6.770;2023-12-20T14:00:35;7.20;99.90
32614;DHT22;19031;51.400;6.770;2023-12-20T14:03:02;7.20;99.90
32614;DHT22;19031;51.400;6.770;2023-12-20T14:05:28;7.20;99.90
32614;DHT22;19031;51.400;6.770;2023-12-20T14:07:54;7.20;99.90
32614;DHT22;19031;51.400;6.770;2023-12-20T14:10:19;7.20;99.90
32614;DHT22;19031;51.400;6.770;2023-12-20T14:12:45;7.20;99.90
32614;DHT22;19031;51.400;6.770;2023-12-20T14:15:11;7.30;99.90
32614;DHT22;19031;51.400;6.770;2023-12-20T14:17:39;7.20;99.90
32614;DHT22;19031;51.400;6.770;2023-12-20T14:20:06;7.30;99.90
32614;DHT22;19031;51.400;6.770;2023-12-20T14:22:32;7.30;99.90
32614;DHT22;19031;51.400;6.770;2023-12-20T14:24:58;7.30;99.90
32614;DHT22;19031;51.400;6.770;2023-12-20T14:27:23;7.30;99.90
32614;DHT22;19031;51.400;6.770;2023-12-20T14:29:53;7.40;99.90
32614;DHT22;19031;51.400;6.770;2023-12-20T14:32:19;7.40;99.90
32614;DHT22;19031;51.400;6.770;2023-12-20T14:34:44;7.30;99.90
32614;DHT22;19031;51.400;6.770;2023-12-20T14:37:10;7.30;99.90
32614;DHT22;19031;51.400;6.770;2023-12-20T14:39:35;7.40;99.90
32614;DHT22;19031;51.400;6.770;2023-12-20T14:42:07;7.40;99.90
32614;DHT22;19031;51.400;6.770;2023-12-20T14:44:36;7.40;99.90
32614;DHT22;19031;51.400;6.770;2023-12-20T14:47:02;7.40;99.90
32614;DHT22;19031;51.400;6.770;2023-12-20T14:49:27;7.40;99.90
32614;DHT22;19031;51.400;6.770;2023-12-20T14:51:53;7.40;99.90
32614;DHT22;19031;51.400;6.770;2023-12-20T14:54:19;7.50;99.90
32614;DHT22;19031;51.400;6.770;2023-12-20T14:56:46;7.50;99.90
32614;DHT22;19031;51.400;6.770;2023-12-20T14:59:12;7.40;99.90
32614;DHT22;19031;51.400;6.770;2023-12-20T15:01:38;7.50;99.90
32614;DHT22;19031;51.400;6.770;2023-12-20T15:04:06;7.60;99.90
32614;DHT22;19031;51.400;6.770;2023-12-20T15:06:31;7.60;99.90
32614;DHT22;19031;51.400;6.770;2023-12-20T15:08:58;7.60;99.90
32614;DHT22;19031;51.400;6.770;2023-12-20T15:11:23;7.70;99.90
32614;DHT22;19031;51.400;6.770;2023-12-20T15:13:49;7.60;99.90
32614;DHT22;19031;51.400;6.770;2023-12-20T15:16:22;7.60;99.90
32614;DHT22;19031;51.400;6.770;2023-12-20T15:18:48;7.60;99.90
32614;DHT22;19031;51.400;6.770;2023-12-20T15:21:14;7.60;99.90
32614;DHT22;19031;51.400;6.770;2023-12-20T15:23:40;7.70;99.90
32614;DHT22;19031;51.400;6.770;2023-12-20T15:26:09;7.70;99.90
32614;DHT22;19031;51.400;6.770;2023-12-20T15:28:34;7.60;99.90
32614;DHT22;19031;51.400;6.770;2023-12-20T15:31:00;7.60;99.90
32614;DHT22;19031;51.400;6.770;2023-12-20T15:33:25;7.70;99.90
32614;DHT22;19031;51.400;6.770;2023-12-20T15:35:51;7.60;99.90
32614;DHT22;19031;51.400;6.770;2023-12-20T15:38:16;7.60;99.90
32614;DHT22;19031;51.400;6.770;2023-12-20T15:40:42;7.60;99.90
32614;DHT22;19031;51.400;6.770;2023-12-20T15:43:08;7.60;99.90
32614;DHT22;19031;51.400;6.770;2023-12-20T15:45:33;7.60;99.90